createdAt,value
2023-04-16T00:00:48.657Z,143.04
2023-04-16T00:01:48.774Z,146.53
2023-04-16T00:02:48.842Z,144.54
2023-04-16T00:03:49.098Z,146.28
2023-04-16T00:04:49.037Z,144.22
2023-04-16T00:05:48.938Z,150.12
2023-04-16T00:06:48.965Z,150.59
2023-04-16T00:07:49.004Z,147.87
2023-04-16T00:08:49.051Z,142.99
2023-04-16T00:09:49.081Z,137.86
2023-04-16T00:10:49.095Z,132.02
2023-04-16T00:11:49.130Z,132.27
2023-04-16T00:12:49.143Z,131.16
2023-04-16T00:13:49.198Z,132.86
2023-04-16T00:14:49.225Z,131.16
2023-04-16T00:15:49.249Z,129.27
2023-04-16T00:16:49.327Z,132.55
2023-04-16T00:17:49.353Z,132.73
2023-04-16T00:18:49.348Z,134.38
2023-04-16T00:19:49.402Z,139.42
2023-04-16T00:20:49.463Z,137.96
2023-04-16T00:21:49.601Z,134.52
2023-04-16T00:22:49.590Z,126.24
2023-04-16T00:23:49.656Z,121.84
2023-04-16T00:24:49.664Z,125.05
2023-04-16T00:25:49.699Z,123.40
2023-04-16T00:26:49.736Z,127.81
2023-04-16T00:27:49.823Z,124.98
2023-04-16T00:28:49.855Z,125.53
2023-04-16T00:29:49.854Z,126.66
2023-04-16T00:30:49.982Z,123.18
2023-04-16T00:31:49.979Z,124.71
2023-04-16T00:32:50.075Z,129.25
2023-04-16T00:33:50.119Z,129.09
2023-04-16T00:34:50.166Z,122.87
2023-04-16T00:35:50.257Z,123.13
2023-04-16T00:36:50.283Z,124.09
2023-04-16T00:37:50.359Z,132.66
2023-04-16T00:38:50.402Z,123.20
2023-04-16T00:39:50.434Z,130.10
2023-04-16T00:40:50.472Z,120.91
2023-04-16T00:41:50.509Z,113.26
2023-04-16T00:42:50.549Z,122.13
2023-04-16T00:43:50.560Z,125.88
2023-04-16T00:44:50.612Z,118.31
2023-04-16T00:45:50.686Z,120.72
2023-04-16T00:46:50.686Z,115.06
2023-04-16T00:47:50.784Z,106.61
2023-04-16T00:48:50.777Z,115.65
2023-04-16T00:49:50.816Z,112.86
2023-04-16T00:50:50.894Z,112.21
2023-04-16T00:51:50.954Z,113.05
2023-04-16T00:52:50.989Z,111.83
2023-04-16T00:53:51.025Z,121.16
2023-04-16T00:54:51.068Z,128.37
2023-04-16T00:55:51.100Z,118.01
2023-04-16T00:56:51.147Z,110.46
2023-04-16T00:57:51.180Z,112.65
2023-04-16T00:58:51.225Z,114.75
2023-04-16T00:59:51.257Z,115.08
2023-04-16T01:00:51.296Z,122.12
2023-04-16T01:01:51.414Z,123.67
2023-04-16T01:02:51.500Z,121.81
2023-04-16T01:03:51.515Z,116.68
2023-04-16T01:04:51.415Z,107.04
2023-04-16T01:05:51.451Z,112.84
2023-04-16T01:06:51.487Z,110.14
2023-04-16T01:07:51.529Z,112.26
2023-04-16T01:08:51.567Z,115.01
2023-04-16T01:09:51.588Z,115.23
2023-04-16T01:10:51.639Z,114.74
2023-04-16T01:11:51.669Z,114.04
2023-04-16T01:12:51.696Z,116.12
2023-04-16T01:13:51.752Z,121.42
2023-04-16T01:14:51.804Z,120.19
2023-04-16T01:15:51.921Z,117.69
2023-04-16T01:16:51.942Z,112.63
2023-04-16T01:17:52.109Z,110.21
2023-04-16T01:18:52.050Z,119.98
2023-04-16T01:19:52.086Z,115.37
2023-04-16T01:20:52.130Z,116.13
2023-04-16T01:21:52.137Z,120.66
2023-04-16T01:22:52.183Z,114.18
2023-04-16T01:23:52.224Z,110.84
2023-04-16T01:24:52.262Z,114.12
2023-04-16T01:25:52.275Z,112.28
2023-04-16T01:26:52.356Z,110.75
2023-04-16T01:27:52.363Z,121.02
2023-04-16T01:28:52.412Z,116.53
2023-04-16T01:29:52.494Z,109.90
2023-04-16T01:30:52.536Z,108.64
2023-04-16T01:31:52.682Z,114.15
2023-04-16T01:32:52.694Z,123.70
2023-04-16T01:33:52.717Z,121.93
2023-04-16T01:34:52.766Z,124.92
2023-04-16T01:35:52.848Z,126.28
2023-04-16T01:36:52.911Z,116.50
2023-04-16T01:37:52.970Z,117.82
2023-04-16T01:38:53.033Z,120.74
2023-04-16T01:39:53.098Z,118.43
2023-04-16T01:40:53.120Z,119.52
2023-04-16T01:41:53.190Z,131.78
2023-04-16T01:42:53.254Z,122.11
2023-04-16T01:43:53.328Z,118.34
2023-04-16T01:44:53.388Z,111.72
2023-04-16T01:45:53.457Z,123.95
2023-04-16T01:46:53.609Z,121.26
2023-04-16T01:47:53.629Z,128.13
2023-04-16T01:48:53.635Z,120.93
2023-04-16T01:49:53.688Z,118.85
2023-04-16T01:50:53.754Z,131.87
2023-04-16T01:51:53.767Z,129.73
2023-04-16T01:52:53.822Z,135.51
2023-04-16T01:53:53.858Z,136.03
2023-04-16T01:54:53.898Z,131.15
2023-04-16T01:55:53.914Z,125.74
2023-04-16T01:56:54.000Z,126.52
2023-04-16T01:57:54.025Z,127.22
2023-04-16T01:58:54.053Z,125.39
2023-04-16T01:59:54.094Z,120.61
2023-04-16T02:00:54.179Z,126.57
2023-04-16T02:01:54.267Z,130.27
2023-04-16T02:02:54.410Z,129.45
2023-04-16T02:03:54.424Z,129.63
2023-04-16T02:04:54.316Z,127.75
2023-04-16T02:05:54.401Z,130.06
2023-04-16T02:06:54.450Z,130.87
2023-04-16T02:07:54.496Z,128.86
2023-04-16T02:08:54.529Z,135.33
2023-04-16T02:09:54.630Z,135.99
2023-04-16T02:10:54.632Z,136.35
2023-04-16T02:11:54.702Z,139.03
2023-04-16T02:12:54.730Z,140.91
2023-04-16T02:13:54.784Z,142.80
2023-04-16T02:14:54.828Z,137.15
2023-04-16T02:15:54.907Z,133.78
2023-04-16T02:16:55.016Z,118.92
2023-04-16T02:17:55.073Z,128.45
2023-04-16T02:18:55.079Z,118.84
2023-04-16T02:19:55.152Z,121.54
2023-04-16T02:20:55.198Z,126.65
2023-04-16T02:21:55.238Z,129.39
2023-04-16T02:22:55.287Z,122.47
2023-04-16T02:23:55.353Z,121.74
2023-04-16T02:24:55.399Z,125.94
2023-04-16T02:25:55.455Z,126.56
2023-04-16T02:26:55.510Z,123.90
2023-04-16T02:27:55.554Z,125.17
2023-04-16T02:28:55.580Z,127.01
2023-04-16T02:29:55.626Z,128.36
2023-04-16T02:30:55.678Z,130.50
2023-04-16T02:31:55.772Z,134.41
2023-04-16T02:32:55.819Z,134.47
2023-04-16T02:33:55.857Z,138.02
2023-04-16T02:34:55.898Z,141.81
2023-04-16T02:35:55.942Z,135.20
2023-04-16T02:36:56.010Z,137.49
2023-04-16T02:37:56.091Z,130.65
2023-04-16T02:38:56.144Z,130.85
2023-04-16T02:39:56.218Z,127.64
2023-04-16T02:40:56.282Z,131.79
2023-04-16T02:41:56.344Z,131.81
2023-04-16T02:42:56.377Z,130.63
2023-04-16T02:43:56.422Z,129.58
2023-04-16T02:44:56.474Z,126.19
2023-04-16T02:45:56.547Z,136.47
2023-04-16T02:46:56.585Z,134.29
2023-04-16T02:47:56.673Z,134.41
2023-04-16T02:48:56.653Z,130.36
2023-04-16T02:49:56.702Z,131.13
2023-04-16T02:50:56.794Z,130.23
2023-04-16T02:51:56.866Z,136.76
2023-04-16T02:52:56.880Z,132.19
2023-04-16T02:53:56.922Z,142.58
2023-04-16T02:54:56.970Z,140.74
2023-04-16T02:55:57.036Z,140.24
2023-04-16T02:56:57.126Z,146.39
2023-04-16T02:57:57.148Z,139.02
2023-04-16T02:58:57.201Z,141.36
2023-04-16T02:59:57.265Z,141.71
2023-04-16T03:00:57.341Z,135.11
2023-04-16T03:01:57.387Z,143.61
2023-04-16T03:02:57.483Z,139.80
2023-04-16T03:03:57.484Z,142.81
2023-04-16T03:04:57.522Z,136.33
2023-04-16T03:05:57.528Z,136.81
2023-04-16T03:06:57.571Z,142.29
2023-04-16T03:07:57.619Z,135.61
2023-04-16T03:08:57.679Z,142.06
2023-04-16T03:09:57.717Z,136.06
2023-04-16T03:10:57.756Z,142.79
2023-04-16T03:11:57.875Z,148.66
2023-04-16T03:12:57.865Z,156.43
2023-04-16T03:13:57.940Z,152.58
2023-04-16T03:14:57.945Z,153.85
2023-04-16T03:15:58.085Z,151.40
2023-04-16T03:16:58.055Z,161.13
2023-04-16T03:17:58.172Z,163.85
2023-04-16T03:18:58.123Z,155.72
2023-04-16T03:19:58.200Z,151.15
2023-04-16T03:20:58.228Z,157.72
2023-04-16T03:21:58.276Z,156.81
2023-04-16T03:22:58.343Z,151.64
2023-04-16T03:23:58.374Z,159.28
2023-04-16T03:24:58.401Z,157.21
2023-04-16T03:25:58.469Z,160.87
2023-04-16T03:26:58.498Z,166.23
2023-04-16T03:27:58.544Z,162.65
2023-04-16T03:28:58.588Z,158.08
2023-04-16T03:29:58.612Z,163.36
2023-04-16T03:30:58.687Z,169.42
2023-04-16T03:31:58.712Z,163.40
2023-04-16T03:32:58.829Z,156.68
2023-04-16T03:33:58.802Z,155.00
2023-04-16T03:34:58.876Z,149.86
2023-04-16T03:35:58.886Z,157.69
2023-04-16T03:36:58.970Z,166.39
2023-04-16T03:37:58.992Z,161.89
2023-04-16T03:38:59.042Z,162.22
2023-04-16T03:39:59.087Z,164.64
2023-04-16T03:40:59.111Z,167.96
2023-04-16T03:41:59.137Z,160.64
2023-04-16T03:42:59.192Z,162.99
2023-04-16T03:43:59.255Z,166.70
2023-04-16T03:44:59.304Z,162.58
2023-04-16T03:45:59.407Z,167.95
2023-04-16T03:46:59.433Z,162.93
2023-04-16T03:48:00.248Z,166.42
2023-04-16T03:48:59.458Z,169.63
2023-04-16T03:49:59.531Z,167.59
2023-04-16T03:50:59.570Z,162.40
2023-04-16T03:51:59.599Z,166.23
2023-04-16T03:52:59.615Z,161.87
2023-04-16T03:53:59.686Z,159.71
2023-04-16T03:54:59.746Z,159.29
2023-04-16T03:55:59.809Z,166.83
2023-04-16T03:56:59.830Z,158.64
2023-04-16T03:57:59.883Z,157.33
2023-04-16T03:58:59.942Z,158.13
2023-04-16T03:59:59.997Z,158.77
2023-04-16T04:01:00.026Z,150.54
2023-04-16T04:02:00.196Z,151.78
2023-04-16T04:03:00.279Z,147.43
2023-04-16T04:04:00.328Z,160.17
2023-04-16T04:05:00.343Z,163.29
2023-04-16T04:06:00.237Z,163.56
2023-04-16T04:07:00.286Z,167.96
2023-04-16T04:08:00.337Z,170.72
2023-04-16T04:09:00.373Z,170.97
2023-04-16T04:10:00.409Z,169.23
2023-04-16T04:11:00.474Z,167.37
2023-04-16T04:12:00.531Z,180.84
2023-04-16T04:13:00.599Z,179.61
2023-04-16T04:14:00.673Z,175.23
2023-04-16T04:15:00.705Z,181.18
2023-04-16T04:16:00.777Z,171.11
2023-04-16T04:17:00.797Z,175.08
2023-04-16T04:18:00.840Z,180.63
2023-04-16T04:19:00.876Z,186.57
2023-04-16T04:20:01.866Z,183.52
2023-04-16T04:21:00.958Z,185.25
2023-04-16T04:22:01.014Z,180.84
2023-04-16T04:23:01.061Z,189.73
2023-04-16T04:24:01.084Z,189.72
2023-04-16T04:25:01.121Z,187.53
2023-04-16T04:26:01.206Z,184.20
2023-04-16T04:27:01.236Z,182.27
2023-04-16T04:28:01.261Z,181.82
2023-04-16T04:29:01.294Z,185.28
2023-04-16T04:30:01.406Z,193.30
2023-04-16T04:31:01.409Z,182.56
2023-04-16T04:32:01.524Z,184.83
2023-04-16T04:33:01.543Z,189.59
2023-04-16T04:34:01.572Z,187.23
2023-04-16T04:35:01.610Z,182.74
2023-04-16T04:36:01.709Z,183.39
2023-04-16T04:37:01.741Z,182.14
2023-04-16T04:38:02.553Z,183.17
2023-04-16T04:39:01.867Z,182.53
2023-04-16T04:40:01.899Z,182.67
2023-04-16T04:41:02.063Z,187.50
2023-04-16T04:42:01.955Z,180.76
2023-04-16T04:43:02.065Z,173.85
2023-04-16T04:44:02.060Z,179.25
2023-04-16T04:45:02.085Z,182.85
2023-04-16T04:46:02.224Z,188.19
2023-04-16T04:47:02.156Z,187.65
2023-04-16T04:48:02.244Z,188.78
2023-04-16T04:49:02.271Z,191.70
2023-04-16T04:50:02.315Z,183.47
2023-04-16T04:51:04.734Z,189.27
2023-04-16T04:52:02.332Z,189.49
2023-04-16T04:53:02.322Z,184.23
2023-04-16T04:54:02.340Z,185.58
2023-04-16T04:55:02.310Z,184.23
2023-04-16T04:56:12.193Z,190.50
2023-04-16T04:57:03.307Z,190.91
2023-04-16T04:58:02.301Z,191.51
2023-04-16T04:59:02.759Z,188.62
2023-04-16T05:00:02.271Z,191.70
2023-04-16T05:01:02.400Z,184.72
2023-04-16T05:02:02.304Z,189.66
2023-04-16T05:03:02.341Z,187.04
2023-04-16T05:04:02.337Z,196.86
2023-04-16T05:05:02.297Z,190.79
2023-04-16T05:06:02.245Z,196.07
2023-04-16T05:07:02.253Z,185.75
2023-04-16T05:08:02.255Z,194.38
2023-04-16T05:09:02.290Z,190.95
2023-04-16T05:10:02.275Z,183.62
2023-04-16T05:11:02.281Z,185.34
2023-04-16T05:12:02.306Z,189.81
2023-04-16T05:13:02.332Z,186.84
2023-04-16T05:14:02.375Z,185.59
2023-04-16T05:15:02.392Z,183.61
2023-04-16T05:16:02.445Z,183.42
2023-04-16T05:17:02.535Z,177.20
2023-04-16T05:18:02.593Z,180.71
2023-04-16T05:19:02.577Z,184.70
2023-04-16T05:20:02.593Z,186.04
2023-04-16T05:21:02.654Z,190.27
2023-04-16T05:22:02.692Z,186.36
2023-04-16T05:23:02.760Z,191.24
2023-04-16T05:24:02.792Z,190.62
2023-04-16T05:25:02.830Z,187.88
2023-04-16T05:26:02.866Z,188.15
2023-04-16T05:27:02.912Z,186.73
2023-04-16T05:28:02.957Z,185.41
2023-04-16T05:29:03.022Z,178.54
2023-04-16T05:30:03.043Z,186.37
2023-04-16T05:31:03.160Z,181.71
2023-04-16T05:32:03.154Z,189.14
2023-04-16T05:33:03.206Z,190.92
2023-04-16T05:34:03.260Z,188.96
2023-04-16T05:35:03.322Z,190.61
2023-04-16T05:36:03.350Z,188.00
2023-04-16T05:37:03.394Z,191.64
2023-04-16T05:38:03.440Z,185.75
2023-04-16T05:39:03.536Z,182.94
2023-04-16T05:40:03.502Z,184.93
2023-04-16T05:41:03.563Z,187.99
2023-04-16T05:42:03.600Z,185.28
2023-04-16T05:43:03.640Z,190.32
2023-04-16T05:44:03.718Z,186.62
2023-04-16T05:45:03.745Z,185.30
2023-04-16T05:46:03.841Z,185.67
2023-04-16T05:47:03.837Z,183.26
2023-04-16T05:48:03.871Z,179.36
2023-04-16T05:49:03.906Z,172.86
2023-04-16T05:50:03.954Z,176.88
2023-04-16T05:51:03.998Z,179.35
2023-04-16T05:52:04.022Z,178.87
2023-04-16T05:53:04.084Z,176.60
2023-04-16T05:54:04.130Z,173.58
2023-04-16T05:55:04.158Z,178.37
2023-04-16T05:56:04.276Z,182.17
2023-04-16T05:57:04.361Z,175.29
2023-04-16T05:58:04.374Z,181.67
2023-04-16T05:59:04.354Z,183.93
2023-04-16T06:00:04.426Z,179.71
2023-04-16T06:01:04.458Z,190.43
2023-04-16T06:02:04.550Z,181.80
2023-04-16T06:03:04.713Z,183.53
2023-04-16T06:04:04.658Z,184.08
2023-04-16T06:05:04.699Z,179.48
2023-04-16T06:06:04.704Z,181.63
2023-04-16T06:07:04.702Z,182.60
2023-04-16T06:08:04.758Z,184.15
2023-04-16T06:09:04.789Z,177.48
2023-04-16T06:10:04.821Z,173.56
2023-04-16T06:11:04.870Z,174.54
2023-04-16T06:12:04.924Z,179.21
2023-04-16T06:13:04.965Z,177.93
2023-04-16T06:14:05.029Z,181.80
2023-04-16T06:15:05.072Z,177.56
2023-04-16T06:16:05.157Z,181.32
2023-04-16T06:17:05.211Z,178.01
2023-04-16T06:18:05.305Z,179.72
2023-04-16T06:19:05.287Z,182.10
2023-04-16T06:20:05.297Z,170.89
2023-04-16T06:21:05.344Z,170.77
2023-04-16T06:22:05.416Z,174.31
2023-04-16T06:23:05.499Z,174.53
2023-04-16T06:24:05.559Z,173.49
2023-04-16T06:25:05.598Z,176.87
2023-04-16T06:26:05.664Z,173.99
2023-04-16T06:27:05.724Z,163.33
2023-04-16T06:28:05.806Z,167.12
2023-04-16T06:29:05.854Z,168.24
2023-04-16T06:30:05.924Z,182.63
2023-04-16T06:31:05.999Z,174.01
2023-04-16T06:32:06.058Z,165.95
2023-04-16T06:33:06.124Z,173.51
2023-04-16T06:34:06.156Z,167.36
2023-04-16T06:35:06.210Z,176.10
2023-04-16T06:36:06.272Z,174.23
2023-04-16T06:37:07.192Z,180.28
2023-04-16T06:38:06.343Z,177.11
2023-04-16T06:39:06.335Z,171.05
2023-04-16T06:40:06.345Z,177.16
2023-04-16T06:41:06.309Z,175.27
2023-04-16T06:42:06.322Z,170.13
2023-04-16T06:43:06.307Z,173.23
2023-04-16T06:44:06.316Z,176.05
2023-04-16T06:45:06.336Z,170.43
2023-04-16T06:46:06.295Z,174.21
2023-04-16T06:47:06.311Z,169.82
2023-04-16T06:48:06.333Z,171.59
2023-04-16T06:49:06.285Z,169.30
2023-04-16T06:50:06.263Z,166.40
2023-04-16T06:51:06.254Z,168.53
2023-04-16T06:52:06.256Z,166.58
2023-04-16T06:53:06.249Z,170.69
2023-04-16T06:54:06.243Z,169.92
2023-04-16T06:55:06.224Z,167.19
2023-04-16T06:56:06.209Z,160.50
2023-04-16T06:57:06.206Z,160.14
2023-04-16T06:58:06.201Z,165.67
2023-04-16T06:59:06.193Z,166.60
2023-04-16T07:00:06.192Z,155.68
2023-04-16T07:01:06.236Z,157.76
2023-04-16T07:02:06.241Z,159.45
2023-04-16T07:03:06.307Z,157.58
2023-04-16T07:04:06.239Z,153.62
2023-04-16T07:05:06.181Z,153.57
2023-04-16T07:06:06.160Z,156.22
2023-04-16T07:07:06.163Z,161.01
2023-04-16T07:08:06.139Z,159.15
2023-04-16T07:09:06.151Z,156.71
2023-04-16T07:10:06.136Z,151.75
2023-04-16T07:11:06.119Z,150.60
2023-04-16T07:12:06.153Z,158.41
2023-04-16T07:13:06.109Z,153.68
2023-04-16T07:14:06.104Z,153.75
2023-04-16T07:15:06.104Z,152.45
2023-04-16T07:16:06.131Z,153.25
2023-04-16T07:17:06.086Z,148.84
2023-04-16T07:18:06.112Z,164.54
2023-04-16T07:19:06.099Z,155.36
2023-04-16T07:20:06.069Z,147.77
2023-04-16T07:21:06.071Z,148.09
2023-04-16T07:22:06.063Z,148.99
2023-04-16T07:23:06.040Z,151.45
2023-04-16T07:24:06.036Z,147.67
2023-04-16T07:25:06.037Z,148.46
2023-04-16T07:26:06.038Z,149.96
2023-04-16T07:27:06.014Z,145.18
2023-04-16T07:28:06.035Z,145.11
2023-04-16T07:29:06.026Z,143.33
2023-04-16T07:30:06.003Z,143.58
2023-04-16T07:31:06.011Z,142.97
2023-04-16T07:32:06.029Z,134.89
2023-04-16T07:33:06.090Z,134.59
2023-04-16T07:34:06.099Z,132.67
2023-04-16T07:35:06.172Z,136.11
2023-04-16T07:36:06.175Z,133.82
2023-04-16T07:37:06.172Z,130.72
2023-04-16T07:38:06.183Z,137.00
2023-04-16T07:39:06.171Z,134.35
2023-04-16T07:40:06.221Z,129.84
2023-04-16T07:41:06.259Z,125.57
2023-04-16T07:42:06.271Z,115.62
2023-04-16T07:43:06.273Z,113.59
2023-04-16T07:44:06.258Z,121.65
2023-04-16T07:45:06.267Z,130.38
2023-04-16T07:46:06.326Z,132.23
2023-04-16T07:47:06.359Z,135.85
2023-04-16T07:48:06.251Z,134.74
2023-04-16T07:49:06.264Z,134.11
2023-04-16T07:50:06.247Z,128.49
2023-04-16T07:51:06.267Z,124.78
2023-04-16T07:52:06.313Z,132.75
2023-04-16T07:53:06.345Z,125.09
2023-04-16T07:54:06.345Z,123.90
2023-04-16T07:55:06.350Z,126.21
2023-04-16T07:56:06.376Z,131.37
2023-04-16T07:57:06.427Z,136.63
2023-04-16T07:58:06.460Z,133.28
2023-04-16T07:59:19.190Z,133.23
2023-04-16T08:00:07.493Z,132.18
2023-04-16T08:01:06.485Z,134.45
2023-04-16T08:02:06.512Z,133.35
2023-04-16T08:03:06.643Z,133.21
2023-04-16T08:04:06.607Z,134.35
2023-04-16T08:05:06.484Z,130.57
2023-04-16T08:06:06.452Z,126.53
2023-04-16T08:07:06.464Z,139.50
2023-04-16T08:08:06.473Z,142.37
2023-04-16T08:09:06.455Z,136.38
2023-04-16T08:10:06.434Z,139.98
2023-04-16T08:11:06.441Z,140.62
2023-04-16T08:12:06.416Z,139.67
2023-04-16T08:13:06.416Z,134.38
2023-04-16T08:14:06.396Z,136.95
2023-04-16T08:15:06.418Z,132.43
2023-04-16T08:16:06.487Z,131.44
2023-04-16T08:17:06.405Z,135.34
2023-04-16T08:18:06.494Z,131.16
2023-04-16T08:19:06.436Z,135.03
2023-04-16T08:20:06.448Z,131.22
2023-04-16T08:21:06.441Z,129.08
2023-04-16T08:22:06.462Z,134.28
2023-04-16T08:23:06.460Z,139.25
2023-04-16T08:24:06.479Z,136.06
2023-04-16T08:25:06.523Z,137.06
2023-04-16T08:26:06.524Z,133.67
2023-04-16T08:27:17.911Z,134.10
2023-04-16T08:28:07.555Z,134.31
2023-04-16T08:29:06.544Z,134.90
2023-04-16T08:30:06.528Z,136.74
2023-04-16T08:31:06.669Z,142.17
2023-04-16T08:32:06.518Z,143.13
2023-04-16T08:33:06.521Z,145.30
2023-04-16T08:34:06.521Z,144.06
2023-04-16T08:35:06.509Z,140.19
2023-04-16T08:36:06.500Z,138.68
2023-04-16T08:37:06.536Z,138.99
2023-04-16T08:38:06.511Z,131.17
2023-04-16T08:39:06.478Z,139.38
2023-04-16T08:40:06.462Z,136.67
2023-04-16T08:41:06.487Z,141.93
2023-04-16T08:42:06.520Z,140.69
2023-04-16T08:43:06.595Z,138.65
2023-04-16T08:44:06.641Z,137.06
2023-04-16T08:45:06.722Z,137.53
2023-04-16T08:46:06.833Z,132.92
2023-04-16T08:47:06.862Z,133.89
2023-04-16T08:48:06.902Z,130.10
2023-04-16T08:49:06.945Z,130.68
2023-04-16T08:50:06.995Z,139.17
2023-04-16T08:51:07.042Z,139.75
2023-04-16T08:52:07.089Z,136.80
2023-04-16T08:53:07.198Z,131.75
2023-04-16T08:54:07.215Z,139.43
2023-04-16T08:55:07.226Z,138.93
2023-04-16T08:56:07.234Z,141.65
2023-04-16T08:57:07.229Z,139.45
2023-04-16T08:58:07.248Z,142.92
2023-04-16T08:59:07.414Z,142.38
2023-04-16T09:00:07.273Z,151.21
2023-04-16T09:01:07.378Z,148.55
2023-04-16T09:02:07.518Z,140.47
2023-04-16T09:03:07.540Z,144.42
2023-04-16T09:04:07.691Z,145.14
2023-04-16T09:05:07.599Z,144.53
2023-04-16T09:06:07.667Z,143.18
2023-04-16T09:07:07.690Z,148.15
2023-04-16T09:08:07.716Z,150.48
2023-04-16T09:09:07.856Z,144.38
2023-04-16T09:10:07.823Z,146.76
2023-04-16T09:11:07.885Z,147.23
2023-04-16T09:12:07.946Z,143.90
2023-04-16T09:13:07.986Z,151.13
2023-04-16T09:14:08.067Z,150.25
2023-04-16T09:15:08.118Z,152.82
2023-04-16T09:16:08.326Z,155.78
2023-04-16T09:17:08.247Z,154.22
2023-04-16T09:18:08.280Z,153.68
2023-04-16T09:19:08.469Z,149.67
2023-04-16T09:20:08.338Z,153.04
2023-04-16T09:21:08.428Z,150.80
2023-04-16T09:22:08.488Z,151.13
2023-04-16T09:23:08.540Z,153.00
2023-04-16T09:24:08.577Z,158.37
2023-04-16T09:25:08.652Z,150.43
2023-04-16T09:26:08.653Z,155.02
2023-04-16T09:27:08.686Z,148.80
2023-04-16T09:28:08.673Z,143.76
2023-04-16T09:29:08.883Z,147.38
2023-04-16T09:30:08.711Z,146.58
2023-04-16T09:31:08.722Z,152.86
2023-04-16T09:32:08.792Z,151.43
2023-04-16T09:33:08.737Z,158.76
2023-04-16T09:34:08.769Z,153.20
2023-04-16T09:35:08.777Z,154.41
2023-04-16T09:36:08.858Z,157.60
2023-04-16T09:37:08.895Z,151.80
2023-04-16T09:38:08.893Z,152.90
2023-04-16T09:39:09.110Z,150.49
2023-04-16T09:40:08.935Z,149.65
2023-04-16T09:41:09.021Z,149.67
2023-04-16T09:42:09.076Z,145.45
2023-04-16T09:43:09.127Z,154.87
2023-04-16T09:44:09.174Z,159.17
2023-04-16T09:45:09.265Z,157.34
2023-04-16T09:46:09.464Z,155.48
2023-04-16T09:47:09.394Z,154.01
2023-04-16T09:48:09.427Z,153.82
2023-04-16T09:49:09.765Z,151.31
2023-04-16T09:50:11.283Z,147.12
2023-04-16T09:51:09.558Z,157.29
2023-04-16T09:52:09.552Z,156.81
2023-04-16T09:53:09.534Z,154.07
2023-04-16T09:54:09.550Z,149.87
2023-04-16T09:55:09.527Z,154.24
2023-04-16T09:56:09.512Z,160.91
2023-04-16T09:57:09.505Z,150.08
2023-04-16T09:58:09.498Z,153.28
2023-04-16T09:59:09.745Z,152.80
2023-04-16T10:00:09.516Z,146.85
2023-04-16T10:01:09.523Z,151.93
2023-04-16T10:02:15.424Z,158.49
2023-04-16T10:03:10.575Z,158.67
2023-04-16T10:04:09.517Z,159.27
2023-04-16T10:05:09.466Z,156.68
2023-04-16T10:06:09.441Z,159.59
2023-04-16T10:07:09.469Z,159.11
2023-04-16T10:08:09.428Z,156.43
2023-04-16T10:09:09.625Z,153.44
2023-04-16T10:10:09.435Z,152.43
2023-04-16T10:11:09.405Z,150.09
2023-04-16T10:12:09.409Z,151.72
2023-04-16T10:13:09.412Z,151.71
2023-04-16T10:14:09.392Z,148.12
2023-04-16T10:15:09.406Z,147.47
2023-04-16T10:16:09.398Z,147.71
2023-04-16T10:17:09.543Z,147.51
2023-04-16T10:18:09.422Z,144.29
2023-04-16T10:19:09.626Z,138.00
2023-04-16T10:20:09.376Z,136.29
2023-04-16T10:21:09.382Z,134.18
2023-04-16T10:22:09.405Z,135.64
2023-04-16T10:23:09.440Z,139.60
2023-04-16T10:24:09.472Z,140.42
2023-04-16T10:25:09.513Z,135.66
2023-04-16T10:26:09.522Z,139.06
2023-04-16T10:27:09.552Z,135.99
2023-04-16T10:28:09.561Z,138.62
2023-04-16T10:29:09.939Z,138.42
2023-04-16T10:30:09.595Z,135.66
2023-04-16T10:31:09.803Z,137.56
2023-04-16T10:32:09.633Z,132.74
2023-04-16T10:33:09.753Z,138.63
2023-04-16T10:34:09.680Z,134.57
2023-04-16T10:35:09.702Z,135.35
2023-04-16T10:36:09.748Z,134.77
2023-04-16T10:37:09.729Z,133.01
2023-04-16T10:38:09.719Z,131.54
2023-04-16T10:39:09.958Z,135.81
2023-04-16T10:40:09.754Z,133.81
2023-04-16T10:41:09.761Z,131.77
2023-04-16T10:42:09.828Z,134.80
2023-04-16T10:43:09.821Z,133.67
2023-04-16T10:44:09.995Z,135.83
2023-04-16T10:45:09.843Z,130.95
2023-04-16T10:46:09.875Z,131.83
2023-04-16T10:47:09.917Z,132.93
2023-04-16T10:48:10.063Z,129.38
2023-04-16T10:49:10.093Z,129.95
2023-04-16T10:50:09.938Z,132.68
2023-04-16T10:51:09.960Z,130.26
2023-04-16T10:52:10.003Z,131.49
2023-04-16T10:53:10.085Z,140.09
2023-04-16T10:54:10.126Z,137.05
2023-04-16T10:55:10.184Z,132.51
2023-04-16T10:56:10.266Z,132.66
2023-04-16T10:57:10.285Z,131.25
2023-04-16T10:58:10.297Z,136.69
2023-04-16T10:59:10.665Z,135.51
2023-04-16T11:00:10.340Z,133.65
2023-04-16T11:01:10.479Z,138.99
2023-04-16T11:02:10.527Z,133.30
2023-04-16T11:03:10.543Z,135.67
2023-04-16T11:04:10.666Z,133.72
2023-04-16T11:05:10.548Z,136.90
2023-04-16T11:06:10.589Z,133.37
2023-04-16T11:07:10.621Z,132.95
2023-04-16T11:08:10.627Z,132.28
2023-04-16T11:09:10.978Z,135.32
2023-04-16T11:10:10.689Z,135.69
2023-04-16T11:11:10.701Z,133.52
2023-04-16T11:12:10.729Z,129.07
2023-04-16T11:13:10.727Z,132.96
2023-04-16T11:14:10.740Z,132.35
2023-04-16T11:15:10.739Z,135.47
2023-04-16T11:16:10.789Z,133.79
2023-04-16T11:17:10.752Z,130.19
2023-04-16T11:18:10.765Z,131.59
2023-04-16T11:19:10.824Z,130.66
2023-04-16T11:20:19.578Z,134.84
2023-04-16T11:21:11.762Z,132.09
2023-04-16T11:22:10.758Z,134.88
2023-04-16T11:23:10.739Z,133.68
2023-04-16T11:24:10.716Z,134.43
2023-04-16T11:25:10.716Z,133.70
2023-04-16T11:26:10.723Z,136.98
2023-04-16T11:27:10.739Z,138.90
2023-04-16T11:28:10.711Z,134.09
2023-04-16T11:29:10.985Z,134.62
2023-04-16T11:30:10.695Z,134.43
2023-04-16T11:31:10.703Z,135.35
2023-04-16T11:32:10.687Z,133.50
2023-04-16T11:33:10.667Z,127.03
2023-04-16T11:34:10.649Z,129.90
2023-04-16T11:35:10.662Z,133.78
2023-04-16T11:36:10.652Z,128.43
2023-04-16T11:37:10.658Z,127.12
2023-04-16T11:38:10.652Z,128.92
2023-04-16T11:39:10.829Z,131.76
2023-04-16T11:40:10.675Z,132.20
2023-04-16T11:41:10.677Z,133.53
2023-04-16T11:42:10.744Z,132.96
2023-04-16T11:43:10.705Z,133.09
2023-04-16T11:44:10.732Z,136.18
2023-04-16T11:45:10.762Z,130.58
2023-04-16T11:46:24.509Z,135.07
2023-04-16T11:47:11.829Z,135.01
2023-04-16T11:48:11.297Z,135.40
2023-04-16T11:49:10.935Z,133.01
2023-04-16T11:50:10.767Z,126.58
2023-04-16T11:51:10.767Z,130.73
2023-04-16T11:52:10.748Z,133.29
2023-04-16T11:53:10.761Z,136.86
2023-04-16T11:54:12.155Z,132.82
2023-04-16T11:55:10.741Z,129.40
2023-04-16T11:56:10.734Z,136.09
2023-04-16T11:57:10.714Z,131.26
2023-04-16T11:58:10.739Z,125.05
2023-04-16T11:59:11.099Z,126.84
2023-04-16T12:00:10.755Z,130.05
2023-04-16T12:01:10.699Z,127.34
2023-04-16T12:02:10.720Z,128.05
2023-04-16T12:03:10.789Z,133.94
2023-04-16T12:04:10.860Z,130.37
2023-04-16T12:05:10.702Z,129.55
2023-04-16T12:06:10.665Z,132.39
2023-04-16T12:07:10.676Z,134.45
2023-04-16T12:08:10.707Z,135.55
2023-04-16T12:09:10.814Z,134.15
2023-04-16T12:10:10.731Z,133.25
2023-04-16T12:11:10.781Z,134.70
2023-04-16T12:12:10.794Z,126.94
2023-04-16T12:13:10.825Z,127.85
2023-04-16T12:14:10.860Z,132.07
2023-04-16T12:15:10.906Z,129.36
2023-04-16T12:16:10.961Z,129.14
2023-04-16T12:17:11.073Z,130.54
2023-04-16T12:18:11.068Z,136.16
2023-04-16T12:19:11.213Z,135.40
2023-04-16T12:20:11.177Z,135.51
2023-04-16T12:21:11.120Z,133.56
2023-04-16T12:22:11.158Z,131.81
2023-04-16T12:23:11.171Z,130.53
2023-04-16T12:24:11.224Z,134.91
2023-04-16T12:25:11.281Z,136.95
2023-04-16T12:26:11.283Z,138.36
2023-04-16T12:27:11.342Z,139.97
2023-04-16T12:28:11.353Z,136.04
2023-04-16T12:29:11.629Z,131.45